createdAt,value
2023-10-22T00:00:20.580Z,56.78
2023-10-22T00:00:53.261Z,56.33
2023-10-22T00:01:30.612Z,56.50
2023-10-22T00:02:03.735Z,56.80
2023-10-22T00:02:36.665Z,56.60
2023-10-22T00:03:10.533Z,56.22
2023-10-22T00:03:44.789Z,56.83
2023-10-22T00:04:17.525Z,57.13
2023-10-22T00:04:50.131Z,56.47
2023-10-22T00:05:23.642Z,56.83
2023-10-22T00:05:58.831Z,56.38
2023-10-22T00:06:32.841Z,56.53
2023-10-22T00:07:05.589Z,56.53
2023-10-22T00:07:39.322Z,56.42
2023-10-22T00:08:12.054Z,57.28
2023-10-22T00:08:45.469Z,56.75
2023-10-22T00:09:21.173Z,56.60
2023-10-22T00:09:56.902Z,57.03
2023-10-22T00:10:29.795Z,56.60
2023-10-22T00:11:06.948Z,57.03
2023-10-22T00:11:39.678Z,56.90
2023-10-22T00:12:13.693Z,58.13
2023-10-22T00:12:52.419Z,56.72
2023-10-22T00:13:29.282Z,56.80
2023-10-22T00:14:03.600Z,56.83
2023-10-22T00:14:41.666Z,57.90
2023-10-22T00:15:19.302Z,56.97
2023-10-22T00:15:52.217Z,56.92
2023-10-22T00:16:27.204Z,57.33
2023-10-22T00:17:02.154Z,56.75
2023-10-22T00:17:51.803Z,56.40
2023-10-22T00:18:24.455Z,56.70
2023-10-22T00:18:58.070Z,57.33
2023-10-22T00:19:30.613Z,57.05
2023-10-22T00:20:04.128Z,56.58
2023-10-22T00:20:40.027Z,57.08
2023-10-22T00:21:12.644Z,56.25
2023-10-22T00:21:47.196Z,56.47
2023-10-22T00:22:19.761Z,57.20
2023-10-22T00:22:55.644Z,57.20
2023-10-22T00:23:28.337Z,56.38
2023-10-22T00:24:03.805Z,56.70
2023-10-22T00:24:38.946Z,57.60
2023-10-22T00:25:11.960Z,56.65
2023-10-22T00:25:45.316Z,56.63
2023-10-22T00:26:18.048Z,57.35
2023-10-22T00:26:57.867Z,56.80
2023-10-22T00:27:33.851Z,56.45
2023-10-22T00:28:06.706Z,56.85
2023-10-22T00:28:42.147Z,56.97
2023-10-22T00:29:17.523Z,56.72
2023-10-22T00:29:51.484Z,56.60
2023-10-22T00:30:24.226Z,56.95
2023-10-22T00:31:01.067Z,57.75
2023-10-22T00:31:34.963Z,56.85
2023-10-22T00:32:11.211Z,56.65
2023-10-22T00:32:43.916Z,56.45
2023-10-22T00:33:17.374Z,56.58
2023-10-22T00:33:51.145Z,56.90
2023-10-22T00:34:24.130Z,56.60
2023-10-22T00:34:57.166Z,57.15
2023-10-22T00:35:29.747Z,56.42
2023-10-22T00:36:04.029Z,56.35
2023-10-22T00:36:37.535Z,56.60
2023-10-22T00:37:14.575Z,56.30
2023-10-22T00:37:48.085Z,57.08
2023-10-22T00:38:20.641Z,56.83
2023-10-22T00:38:53.294Z,56.63
2023-10-22T00:39:25.872Z,56.55
2023-10-22T00:39:59.349Z,56.58
2023-10-22T00:40:31.932Z,56.58
2023-10-22T00:41:04.536Z,57.03
2023-10-22T00:41:37.066Z,56.67
2023-10-22T00:42:10.694Z,56.67
2023-10-22T00:42:43.240Z,56.25
2023-10-22T00:43:15.827Z,56.78
2023-10-22T00:43:49.659Z,56.50
2023-10-22T00:44:23.481Z,56.33
2023-10-22T00:44:56.083Z,56.63
2023-10-22T00:45:28.750Z,56.45
2023-10-22T00:46:03.224Z,56.22
2023-10-22T00:46:36.546Z,56.50
2023-10-22T00:47:12.414Z,56.20
2023-10-22T00:47:46.736Z,56.80
2023-10-22T00:48:21.068Z,56.58
2023-10-22T00:48:54.680Z,56.65
2023-10-22T00:49:28.639Z,56.60
2023-10-22T00:50:01.499Z,56.88
2023-10-22T00:50:34.228Z,56.55
2023-10-22T00:51:06.841Z,57.03
2023-10-22T00:51:39.946Z,56.65
2023-10-22T00:52:15.582Z,56.30
2023-10-22T00:52:48.197Z,56.20
2023-10-22T00:53:21.522Z,56.35
2023-10-22T00:53:55.770Z,56.25
2023-10-22T00:54:29.780Z,56.45
2023-10-22T00:55:03.775Z,56.40
2023-10-22T00:55:39.626Z,56.45
2023-10-22T00:56:14.779Z,56.38
2023-10-22T00:56:49.124Z,56.55
2023-10-22T00:57:22.154Z,56.50
2023-10-22T00:57:55.667Z,56.60
2023-10-22T00:58:28.821Z,56.95
2023-10-22T00:59:01.579Z,56.88
2023-10-22T00:59:34.950Z,57.22
2023-10-22T01:00:10.161Z,56.33
2023-10-22T01:00:43.190Z,56.67
2023-10-22T01:01:16.590Z,56.50
2023-10-22T01:01:49.678Z,56.53
2023-10-22T01:02:24.257Z,56.65
2023-10-22T01:02:57.000Z,56.70
2023-10-22T01:03:30.224Z,56.97
2023-10-22T01:04:03.599Z,56.35
2023-10-22T01:04:37.557Z,56.75
2023-10-22T01:05:10.458Z,56.85
2023-10-22T01:05:43.180Z,56.60
2023-10-22T01:06:15.786Z,56.88
2023-10-22T01:06:49.321Z,56.20
2023-10-22T01:07:23.275Z,57.05
2023-10-22T01:07:55.950Z,57.17
2023-10-22T01:08:28.539Z,57.20
2023-10-22T01:09:02.718Z,56.80
2023-10-22T01:09:36.594Z,57.10
2023-10-22T01:10:10.431Z,56.90
2023-10-22T01:10:42.976Z,57.03
2023-10-22T01:11:16.558Z,57.17
2023-10-22T01:12:02.510Z,56.70
2023-10-22T01:12:35.963Z,57.30
2023-10-22T01:13:09.497Z,56.47
2023-10-22T01:13:42.302Z,56.97
2023-10-22T01:14:14.793Z,56.67
2023-10-22T01:14:47.393Z,56.60
2023-10-22T01:15:21.087Z,57.28
2023-10-22T01:15:53.687Z,57.38
2023-10-22T01:16:26.798Z,57.55
2023-10-22T01:17:00.635Z,57.00
2023-10-22T01:17:33.417Z,57.13
2023-10-22T01:18:06.361Z,57.20
2023-10-22T01:18:39.097Z,56.95
2023-10-22T01:19:13.883Z,57.17
2023-10-22T01:19:46.537Z,56.85
2023-10-22T01:20:19.104Z,57.05
2023-10-22T01:20:51.987Z,57.53
2023-10-22T01:21:26.166Z,57.17
2023-10-22T01:21:59.681Z,56.95
2023-10-22T01:22:34.579Z,57.17
2023-10-22T01:23:11.349Z,56.97
2023-10-22T01:23:45.035Z,57.25
2023-10-22T01:24:18.461Z,57.00
2023-10-22T01:24:51.360Z,57.47
2023-10-22T01:25:23.925Z,57.30
2023-10-22T01:25:57.475Z,57.10
2023-10-22T01:26:30.020Z,56.40
2023-10-22T01:27:02.746Z,56.58
2023-10-22T01:27:35.443Z,56.83
2023-10-22T01:28:09.008Z,56.65
2023-10-22T01:28:41.583Z,56.78
2023-10-22T01:29:15.106Z,56.78
2023-10-22T01:29:48.364Z,56.60
2023-10-22T01:30:22.098Z,56.83
2023-10-22T01:30:56.477Z,56.90
2023-10-22T01:31:29.109Z,57.03
2023-10-22T01:32:01.737Z,56.65
2023-10-22T01:32:35.443Z,56.80
2023-10-22T01:33:08.289Z,57.17
2023-10-22T01:33:41.098Z,57.10
2023-10-22T01:34:14.738Z,56.75
2023-10-22T01:34:47.620Z,57.47
2023-10-22T01:35:20.229Z,56.88
2023-10-22T01:35:53.023Z,57.22
2023-10-22T01:36:26.726Z,57.05
2023-10-22T01:36:59.343Z,57.20
2023-10-22T01:37:34.615Z,57.15
2023-10-22T01:38:07.357Z,57.08
2023-10-22T01:38:42.456Z,57.10
2023-10-22T01:39:16.574Z,56.90
2023-10-22T01:39:58.990Z,57.40
2023-10-22T01:40:36.437Z,56.80
2023-10-22T01:41:09.960Z,57.70
2023-10-22T01:41:42.834Z,57.65
2023-10-22T01:42:16.461Z,56.92
2023-10-22T01:42:49.023Z,57.03
2023-10-22T01:43:21.629Z,57.10
2023-10-22T01:43:57.420Z,57.42
2023-10-22T01:44:30.080Z,57.10
2023-10-22T01:45:02.618Z,57.08
2023-10-22T01:45:35.541Z,57.38
2023-10-22T01:46:09.050Z,57.70
2023-10-22T01:46:42.346Z,57.38
2023-10-22T01:47:14.907Z,57.17
2023-10-22T01:47:47.577Z,56.95
2023-10-22T01:48:21.337Z,56.92
2023-10-22T01:48:54.067Z,57.30
2023-10-22T01:49:26.815Z,56.85
2023-10-22T01:49:59.446Z,57.35
2023-10-22T01:50:33.328Z,57.20
2023-10-22T01:51:06.104Z,56.75
2023-10-22T01:51:38.715Z,56.97
2023-10-22T01:52:12.134Z,57.08
2023-10-22T01:52:45.687Z,56.97
2023-10-22T01:53:18.739Z,56.78
2023-10-22T01:53:52.865Z,57.05
2023-10-22T01:54:25.483Z,56.75
2023-10-22T01:54:59.099Z,57.03
2023-10-22T01:55:31.684Z,56.72
2023-10-22T01:56:04.828Z,56.58
2023-10-22T01:56:37.483Z,56.90
2023-10-22T01:57:11.083Z,56.85
2023-10-22T01:57:43.673Z,57.00
2023-10-22T01:58:16.305Z,56.80
2023-10-22T01:58:49.123Z,56.78
2023-10-22T01:59:22.718Z,56.80
2023-10-22T01:59:55.396Z,56.75
2023-10-22T02:00:28.682Z,56.78
2023-10-22T02:01:04.639Z,56.78
2023-10-22T02:01:38.361Z,56.88
2023-10-22T02:02:11.013Z,56.63
2023-10-22T02:02:44.331Z,56.92
2023-10-22T02:03:17.257Z,57.00
2023-10-22T02:03:50.856Z,56.85
2023-10-22T02:04:23.634Z,56.78
2023-10-22T02:04:56.305Z,57.00
2023-10-22T02:05:33.455Z,56.58
2023-10-22T02:06:13.505Z,56.63
2023-10-22T02:06:46.184Z,57.95
2023-10-22T02:07:18.752Z,56.88
2023-10-22T02:07:51.347Z,57.65
2023-10-22T02:08:24.951Z,57.03
2023-10-22T02:08:58.972Z,57.35
2023-10-22T02:09:32.106Z,56.95
2023-10-22T02:10:05.617Z,57.20
2023-10-22T02:10:39.165Z,57.55
2023-10-22T02:11:11.794Z,57.28
2023-10-22T02:11:44.513Z,57.30
2023-10-22T02:12:17.682Z,57.13
2023-10-22T02:12:51.890Z,57.08
2023-10-22T02:13:24.997Z,57.60
2023-10-22T02:13:57.861Z,57.10
2023-10-22T02:14:31.265Z,57.08
2023-10-22T02:15:14.791Z,57.22
2023-10-22T02:15:52.081Z,57.70
2023-10-22T02:16:24.819Z,57.42
2023-10-22T02:16:57.434Z,56.95
2023-10-22T02:17:31.063Z,57.33
2023-10-22T02:18:03.864Z,56.88
2023-10-22T02:18:36.596Z,56.83
2023-10-22T02:19:11.130Z,57.22
2023-10-22T02:19:43.673Z,57.15
2023-10-22T02:20:16.289Z,57.20
2023-10-22T02:20:57.108Z,57.22
2023-10-22T02:21:30.414Z,57.08
2023-10-22T02:22:06.256Z,57.03
2023-10-22T02:22:40.308Z,56.90
2023-10-22T02:23:12.884Z,57.65
2023-10-22T02:23:45.594Z,56.80
2023-10-22T02:24:19.625Z,57.03
2023-10-22T02:24:53.230Z,57.15
2023-10-22T02:25:25.914Z,57.33
2023-10-22T02:25:58.473Z,57.03
2023-10-22T02:26:31.090Z,57.30
2023-10-22T02:27:04.959Z,57.60
2023-10-22T02:27:37.632Z,57.25
2023-10-22T02:28:10.194Z,57.30
2023-10-22T02:28:42.738Z,57.20
2023-10-22T02:29:16.596Z,57.60
2023-10-22T02:29:49.947Z,56.70
2023-10-22T02:30:22.689Z,57.40
2023-10-22T02:30:56.268Z,57.20
2023-10-22T02:31:29.544Z,57.80
2023-10-22T02:32:02.272Z,57.38
2023-10-22T02:32:35.910Z,57.28
2023-10-22T02:33:08.855Z,57.42
2023-10-22T02:33:41.764Z,57.70
2023-10-22T02:34:14.764Z,57.70
2023-10-22T02:34:47.301Z,57.20
2023-10-22T02:35:20.838Z,57.67
2023-10-22T02:35:53.441Z,57.40
2023-10-22T02:36:26.097Z,57.45
2023-10-22T02:36:58.821Z,57.60
2023-10-22T02:37:32.456Z,57.47
2023-10-22T02:38:06.431Z,57.50
2023-10-22T02:38:39.870Z,57.75
2023-10-22T02:39:13.397Z,57.28
2023-10-22T02:39:48.939Z,57.47
2023-10-22T02:40:21.732Z,57.53
2023-10-22T02:40:54.355Z,57.40
2023-10-22T02:41:27.088Z,57.05
2023-10-22T02:42:00.709Z,56.88
2023-10-22T02:42:33.819Z,57.10
2023-10-22T02:43:08.321Z,57.20
2023-10-22T02:43:42.617Z,57.38
2023-10-22T02:44:15.494Z,57.50
2023-10-22T02:44:48.428Z,57.13
2023-10-22T02:45:21.012Z,57.47
2023-10-22T02:45:55.592Z,57.30
2023-10-22T02:46:28.262Z,56.95
2023-10-22T02:47:01.717Z,57.35
2023-10-22T02:47:34.681Z,57.25
2023-10-22T02:48:08.621Z,57.15
2023-10-22T02:48:41.343Z,57.40
2023-10-22T02:49:13.935Z,57.65
2023-10-22T02:49:47.560Z,57.70
2023-10-22T02:50:20.222Z,57.97
2023-10-22T02:50:52.955Z,57.97
2023-10-22T02:51:25.701Z,57.42
2023-10-22T02:51:59.370Z,57.85
2023-10-22T02:52:32.318Z,57.22
2023-10-22T02:53:04.925Z,57.50
2023-10-22T02:53:39.288Z,57.85
2023-10-22T02:54:11.897Z,57.72
2023-10-22T02:54:45.426Z,57.25
2023-10-22T02:55:19.630Z,56.85
2023-10-22T02:56:01.582Z,57.15
2023-10-22T02:56:34.106Z,57.95
2023-10-22T02:57:07.701Z,58.08
2023-10-22T02:57:40.593Z,57.00
2023-10-22T02:58:13.617Z,56.90
2023-10-22T02:58:46.176Z,57.15
2023-10-22T02:59:19.729Z,56.95
2023-10-22T02:59:52.431Z,57.42
2023-10-22T03:00:36.008Z,57.22
2023-10-22T03:01:10.858Z,56.78
2023-10-22T03:01:44.686Z,57.03
2023-10-22T03:02:18.103Z,56.75
2023-10-22T03:02:51.100Z,56.85
2023-10-22T03:03:24.341Z,57.33
2023-10-22T03:03:58.095Z,56.50
2023-10-22T03:04:30.909Z,57.00
2023-10-22T03:05:04.021Z,56.63
2023-10-22T03:05:38.200Z,55.95
2023-10-22T03:06:12.034Z,56.40
2023-10-22T03:06:45.562Z,56.35
2023-10-22T03:07:18.210Z,56.65
2023-10-22T03:07:51.791Z,56.78
2023-10-22T03:08:25.418Z,56.45
2023-10-22T03:08:58.046Z,56.55
2023-10-22T03:09:30.716Z,56.25
2023-10-22T03:10:04.957Z,56.42
2023-10-22T03:10:38.862Z,56.30
2023-10-22T03:11:18.151Z,56.67
2023-10-22T03:11:50.818Z,56.50
2023-10-22T03:12:24.463Z,56.72
2023-10-22T03:12:58.448Z,56.63
2023-10-22T03:13:31.184Z,56.30
2023-10-22T03:14:04.053Z,56.40
2023-10-22T03:14:37.812Z,56.28
2023-10-22T03:15:11.204Z,56.25
2023-10-22T03:15:43.839Z,56.88
2023-10-22T03:16:16.808Z,56.97
2023-10-22T03:16:49.596Z,57.38
2023-10-22T03:17:23.233Z,56.33
2023-10-22T03:17:58.329Z,56.25
2023-10-22T03:18:31.832Z,57.25
2023-10-22T03:19:05.410Z,56.25
2023-10-22T03:19:41.781Z,56.20
2023-10-22T03:20:17.691Z,57.22
2023-10-22T03:20:51.468Z,57.70
2023-10-22T03:21:29.318Z,57.20
2023-10-22T03:22:01.931Z,56.80
2023-10-22T03:22:35.031Z,56.70
2023-10-22T03:23:07.655Z,56.83
2023-10-22T03:23:42.545Z,57.45
2023-10-22T03:24:16.736Z,56.53
2023-10-22T03:24:50.374Z,56.58
2023-10-22T03:25:24.288Z,56.60
2023-10-22T03:26:06.893Z,56.38
2023-10-22T03:26:39.509Z,56.53
2023-10-22T03:27:13.185Z,56.70
2023-10-22T03:27:45.815Z,57.13
2023-10-22T03:28:18.444Z,56.65
2023-10-22T03:28:52.946Z,56.87
2023-10-22T03:29:26.822Z,56.50
2023-10-22T03:29:59.607Z,57.00
2023-10-22T03:30:32.304Z,56.20
2023-10-22T03:31:05.995Z,57.03
2023-10-22T03:31:39.580Z,56.70
2023-10-22T03:32:12.221Z,56.38
2023-10-22T03:32:45.948Z,56.53
2023-10-22T03:33:18.624Z,56.67
2023-10-22T03:33:52.230Z,56.50
2023-10-22T03:34:24.874Z,56.65
2023-10-22T03:34:57.492Z,56.55
2023-10-22T03:35:30.074Z,56.85
2023-10-22T03:36:05.057Z,56.22
2023-10-22T03:36:38.612Z,56.80
2023-10-22T03:37:11.245Z,56.90
2023-10-22T03:37:43.822Z,57.38
2023-10-22T03:38:16.432Z,57.03
2023-10-22T03:38:50.664Z,56.58
2023-10-22T03:39:23.210Z,56.63
2023-10-22T03:39:55.773Z,56.20
2023-10-22T03:40:29.090Z,56.25
2023-10-22T03:41:04.823Z,56.60
2023-10-22T03:41:38.905Z,57.50
2023-10-22T03:42:11.546Z,56.95
2023-10-22T03:42:44.211Z,56.25
2023-10-22T03:43:17.957Z,57.10
2023-10-22T03:43:50.497Z,56.92
2023-10-22T03:44:23.023Z,56.42
2023-10-22T03:44:57.779Z,57.75
2023-10-22T03:45:32.999Z,56.38
2023-10-22T03:46:05.575Z,56.25
2023-10-22T03:46:38.175Z,56.63
2023-10-22T03:47:12.095Z,56.70
2023-10-22T03:47:44.834Z,56.67
2023-10-22T03:48:17.618Z,56.85
2023-10-22T03:48:50.471Z,56.92
2023-10-22T03:49:24.352Z,57.20
2023-10-22T03:49:56.954Z,56.45
2023-10-22T03:50:29.606Z,57.15
2023-10-22T03:51:04.527Z,56.70
2023-10-22T03:51:37.214Z,56.65
2023-10-22T03:52:09.754Z,56.50
2023-10-22T03:52:44.292Z,56.97
2023-10-22T03:53:18.261Z,56.53
2023-10-22T03:53:53.952Z,57.63
2023-10-22T03:54:26.571Z,57.00
2023-10-22T03:55:00.077Z,56.45
2023-10-22T03:55:32.903Z,57.85
2023-10-22T03:56:05.769Z,56.92
2023-10-22T03:56:39.721Z,57.40
2023-10-22T03:57:13.304Z,57.05
2023-10-22T03:57:46.055Z,56.47
2023-10-22T03:58:18.657Z,56.33
2023-10-22T03:58:51.205Z,57.05
2023-10-22T03:59:24.970Z,56.30
2023-10-22T03:59:57.657Z,57.45
2023-10-22T04:00:30.212Z,57.10
2023-10-22T04:01:06.451Z,56.78
2023-10-22T04:01:39.004Z,56.80
2023-10-22T04:02:11.607Z,57.15
2023-10-22T04:02:44.196Z,57.67
2023-10-22T04:03:17.913Z,56.88
2023-10-22T04:03:50.750Z,56.92
2023-10-22T04:04:23.560Z,56.65
2023-10-22T04:04:57.164Z,57.13
2023-10-22T04:05:29.715Z,56.47
2023-10-22T04:06:02.860Z,56.42
2023-10-22T04:06:36.647Z,57.08
2023-10-22T04:07:09.200Z,57.05
2023-10-22T04:07:41.754Z,57.08
2023-10-22T04:08:14.648Z,57.78
2023-10-22T04:08:48.257Z,56.83
2023-10-22T04:09:20.858Z,56.17
2023-10-22T04:09:53.548Z,57.38
2023-10-22T04:10:28.566Z,56.40
2023-10-22T04:11:02.755Z,56.30
2023-10-22T04:11:35.302Z,56.67
2023-10-22T04:12:10.549Z,56.50
2023-10-22T04:12:43.369Z,56.47
2023-10-22T04:13:16.149Z,56.67
2023-10-22T04:13:48.737Z,57.00
2023-10-22T04:14:22.683Z,56.95
2023-10-22T04:14:55.226Z,56.40
2023-10-22T04:15:28.715Z,56.55
2023-10-22T04:16:01.338Z,56.90
2023-10-22T04:16:34.966Z,56.47
2023-10-22T04:17:07.600Z,56.47
2023-10-22T04:17:40.302Z,56.70
2023-10-22T04:18:13.239Z,56.60
2023-10-22T04:18:49.182Z,56.70
2023-10-22T04:19:21.756Z,56.58
2023-10-22T04:19:55.235Z,57.27
2023-10-22T04:20:27.763Z,56.42
2023-10-22T04:21:01.283Z,56.43
2023-10-22T04:21:33.919Z,56.88
2023-10-22T04:22:06.495Z,56.58
2023-10-22T04:22:39.072Z,56.78
2023-10-22T04:23:12.655Z,56.60
2023-10-22T04:23:45.327Z,56.90
2023-10-22T04:24:17.971Z,56.40
2023-10-22T04:24:50.554Z,56.80
2023-10-22T04:25:23.146Z,56.50
2023-10-22T04:25:56.626Z,56.50
2023-10-22T04:26:30.492Z,56.58
2023-10-22T04:27:03.115Z,56.50
2023-10-22T04:27:37.106Z,56.45
2023-10-22T04:28:10.900Z,56.75
2023-10-22T04:28:43.989Z,56.72
2023-10-22T04:29:16.547Z,56.63
2023-10-22T04:29:50.648Z,56.67
2023-10-22T04:30:24.376Z,56.80
2023-10-22T04:30:57.237Z,56.80
2023-10-22T04:31:29.935Z,56.30
2023-10-22T04:32:04.092Z,56.40
2023-10-22T04:32:38.028Z,56.40
2023-10-22T04:33:11.221Z,56.47
2023-10-22T04:33:43.883Z,56.30
2023-10-22T04:34:17.560Z,56.35
2023-10-22T04:34:50.196Z,55.95
2023-10-22T04:35:22.840Z,57.20
2023-10-22T04:35:55.665Z,56.90
2023-10-22T04:36:29.257Z,56.72
2023-10-22T04:37:01.923Z,56.80
2023-10-22T04:37:34.862Z,56.60
2023-10-22T04:38:07.424Z,56.83
2023-10-22T04:38:41.039Z,56.80
2023-10-22T04:39:13.640Z,56.95
2023-10-22T04:39:46.291Z,57.75
2023-10-22T04:40:19.968Z,57.70
2023-10-22T04:40:52.594Z,56.72
2023-10-22T04:41:26.415Z,57.28
2023-10-22T04:41:59.021Z,57.17
2023-10-22T04:42:32.555Z,57.03
2023-10-22T04:43:06.575Z,57.40
2023-10-22T04:43:39.274Z,57.25
2023-10-22T04:44:11.855Z,57.50
2023-10-22T04:44:47.139Z,57.08
2023-10-22T04:45:19.966Z,56.75
2023-10-22T04:45:52.680Z,56.70
2023-10-22T04:46:25.394Z,56.55
2023-10-22T04:46:59.193Z,57.63
2023-10-22T04:47:31.782Z,56.83
2023-10-22T04:48:05.006Z,58.50
2023-10-22T04:48:38.584Z,57.22
2023-10-22T04:49:11.197Z,57.40
2023-10-22T04:49:45.732Z,57.00
2023-10-22T04:50:18.258Z,58.40
2023-10-22T04:50:53.725Z,57.20
2023-10-22T04:51:26.411Z,57.10
2023-10-22T04:51:58.994Z,57.20
2023-10-22T04:52:32.702Z,57.08
2023-10-22T04:53:06.499Z,57.70
2023-10-22T04:53:39.156Z,57.97
2023-10-22T04:54:12.137Z,57.58
2023-10-22T04:54:44.871Z,57.25
2023-10-22T04:55:18.473Z,57.05
2023-10-22T04:55:56.233Z,56.85
2023-10-22T04:56:29.615Z,56.78
2023-10-22T04:57:03.928Z,56.90
2023-10-22T04:57:41.016Z,56.97
2023-10-22T04:58:15.029Z,57.35
2023-10-22T04:58:47.569Z,56.70
2023-10-22T04:59:21.659Z,56.67
2023-10-22T04:59:54.507Z,57.72
2023-10-22T05:00:27.195Z,56.78
2023-10-22T05:01:00.857Z,56.92
2023-10-22T05:01:33.473Z,56.88
2023-10-22T05:02:06.065Z,57.92
2023-10-22T05:02:38.948Z,58.00
2023-10-22T05:03:13.879Z,56.85
2023-10-22T05:03:46.645Z,57.67
2023-10-22T05:04:19.396Z,56.95
2023-10-22T05:04:53.231Z,57.17
2023-10-22T05:05:26.821Z,56.75
2023-10-22T05:06:03.733Z,57.38
2023-10-22T05:06:36.314Z,57.42
2023-10-22T05:07:08.975Z,57.40
2023-10-22T05:07:42.548Z,57.00
2023-10-22T05:08:15.183Z,57.10
2023-10-22T05:08:47.810Z,56.78
2023-10-22T05:09:20.449Z,57.15
2023-10-22T05:09:54.030Z,57.53
2023-10-22T05:10:26.576Z,57.08
2023-10-22T05:10:59.127Z,57.17
2023-10-22T05:11:31.767Z,57.40
2023-10-22T05:12:05.856Z,57.35
2023-10-22T05:12:38.480Z,56.58
2023-10-22T05:13:11.543Z,57.28
2023-10-22T05:13:45.749Z,57.03
2023-10-22T05:14:19.674Z,57.75
2023-10-22T05:14:52.282Z,57.17
2023-10-22T05:15:25.681Z,58.03
2023-10-22T05:15:58.573Z,57.28
2023-10-22T05:16:32.228Z,57.25
2023-10-22T05:17:06.127Z,57.45
2023-10-22T05:17:38.660Z,57.13
2023-10-22T05:18:11.602Z,57.13
2023-10-22T05:18:45.361Z,57.15
2023-10-22T05:19:18.102Z,56.80
2023-10-22T05:19:50.927Z,56.88
2023-10-22T05:20:23.497Z,56.78
2023-10-22T05:21:06.011Z,56.80
2023-10-22T05:21:39.238Z,57.10
2023-10-22T05:22:12.032Z,56.60
2023-10-22T05:22:45.639Z,57.20
2023-10-22T05:23:19.200Z,56.92
2023-10-22T05:23:52.031Z,57.10
2023-10-22T05:24:24.754Z,56.97
2023-10-22T05:24:59.506Z,56.67
2023-10-22T05:25:34.184Z,56.92
2023-10-22T05:26:08.031Z,56.72
2023-10-22T05:26:41.261Z,56.78
2023-10-22T05:27:14.864Z,57.70
2023-10-22T05:27:47.502Z,56.58
2023-10-22T05:28:20.052Z,56.95
2023-10-22T05:28:56.205Z,56.67
2023-10-22T05:29:29.507Z,56.55
2023-10-22T05:30:02.234Z,57.28
2023-10-22T05:30:35.888Z,57.20
2023-10-22T05:31:15.608Z,56.28
2023-10-22T05:31:48.411Z,56.75
2023-10-22T05:32:22.009Z,56.17
2023-10-22T05:32:54.641Z,56.22
2023-10-22T05:33:27.383Z,57.15
2023-10-22T05:34:01.065Z,55.97
2023-10-22T05:34:34.114Z,56.28
2023-10-22T05:35:07.747Z,57.22
2023-10-22T05:35:41.274Z,56.25
2023-10-22T05:36:17.224Z,55.85
2023-10-22T05:36:49.835Z,57.15
2023-10-22T05:37:24.023Z,56.15
2023-10-22T05:37:56.533Z,56.30
2023-10-22T05:38:28.998Z,56.40
2023-10-22T05:39:02.830Z,56.42
2023-10-22T05:39:38.068Z,56.20
2023-10-22T05:40:12.647Z,57.22
2023-10-22T05:40:45.214Z,56.25
2023-10-22T05:41:20.301Z,55.92
2023-10-22T05:41:52.906Z,57.20
2023-10-22T05:42:25.475Z,56.53
2023-10-22T05:42:59.017Z,55.88
2023-10-22T05:43:31.538Z,56.15
2023-10-22T05:44:05.958Z,56.08
2023-10-22T05:44:38.852Z,55.90
2023-10-22T05:45:12.874Z,56.17
2023-10-22T05:45:45.519Z,56.35
2023-10-22T05:46:18.192Z,56.10
2023-10-22T05:46:50.915Z,56.50
2023-10-22T05:47:24.519Z,56.17
2023-10-22T05:47:57.136Z,55.75
2023-10-22T05:48:29.887Z,56.08
2023-10-22T05:49:04.689Z,55.85
2023-10-22T05:49:37.810Z,55.80
2023-10-22T05:50:10.843Z,56.22
2023-10-22T05:50:44.404Z,57.17
2023-10-22T05:51:17.150Z,56.10
2023-10-22T05:51:52.079Z,56.38
2023-10-22T05:52:26.394Z,56.00
2023-10-22T05:52:59.923Z,55.35
2023-10-22T05:53:32.448Z,56.00
2023-10-22T05:54:05.636Z,55.72
2023-10-22T05:54:38.352Z,55.85
2023-10-22T05:55:12.650Z,55.65
2023-10-22T05:55:45.191Z,56.13
2023-10-22T05:56:17.879Z,56.13
2023-10-22T05:56:51.462Z,55.95
2023-10-22T05:57:27.684Z,55.95
2023-10-22T05:58:00.237Z,56.03
2023-10-22T05:58:32.762Z,56.45
2023-10-22T05:59:09.766Z,55.80
2023-10-22T05:59:42.441Z,55.92
2023-10-22T06:00:15.575Z,56.00
2023-10-22T06:00:49.711Z,55.92
2023-10-22T06:01:23.241Z,56.22
2023-10-22T06:01:55.825Z,55.83
2023-10-22T06:02:28.430Z,55.85
2023-10-22T06:03:01.390Z,55.88
2023-10-22T06:03:35.218Z,55.97
2023-10-22T06:04:08.238Z,56.55
2023-10-22T06:04:41.077Z,56.70
2023-10-22T06:05:23.458Z,55.97
2023-10-22T06:05:58.423Z,56.22
2023-10-22T06:06:31.090Z,55.80
2023-10-22T06:07:03.993Z,56.30
2023-10-22T06:07:36.654Z,55.72
2023-10-22T06:08:10.519Z,55.72
2023-10-22T06:08:44.915Z,56.10
2023-10-22T06:09:17.691Z,55.75
2023-10-22T06:09:51.302Z,56.42
2023-10-22T06:10:23.910Z,56.58
2023-10-22T06:10:56.700Z,55.92
2023-10-22T06:11:29.544Z,55.53
2023-10-22T06:12:03.520Z,56.33
2023-10-22T06:12:36.130Z,55.65
2023-10-22T06:13:08.813Z,55.70
2023-10-22T06:13:41.483Z,55.58
2023-10-22T06:14:17.935Z,55.97
2023-10-22T06:14:50.673Z,55.55
2023-10-22T06:15:23.311Z,56.53
2023-10-22T06:15:57.924Z,55.88
2023-10-22T06:16:34.182Z,55.63
2023-10-22T06:17:06.727Z,55.40
2023-10-22T06:17:40.935Z,55.67
2023-10-22T06:18:14.348Z,55.60
2023-10-22T06:18:49.085Z,55.63
2023-10-22T06:19:21.791Z,56.38
2023-10-22T06:19:54.414Z,56.33
2023-10-22T06:20:29.791Z,56.85
2023-10-22T06:21:10.872Z,55.83
2023-10-22T06:21:43.487Z,55.60
2023-10-22T06:22:16.206Z,55.83
2023-10-22T06:22:49.751Z,55.85
2023-10-22T06:23:22.673Z,55.85
2023-10-22T06:23:55.208Z,55.88
2023-10-22T06:24:28.749Z,56.53
2023-10-22T06:25:01.716Z,55.70
2023-10-22T06:25:34.639Z,55.85
2023-10-22T06:26:11.227Z,55.92
2023-10-22T06:26:43.841Z,55.97
2023-10-22T06:27:16.654Z,55.70
2023-10-22T06:27:49.312Z,55.72
2023-10-22T06:28:22.902Z,55.70
2023-10-22T06:28:55.442Z,55.72
2023-10-22T06:29:29.304Z,55.90
2023-10-22T06:30:02.445Z,56.58
2023-10-22T06:30:36.048Z,55.87
2023-10-22T06:31:09.392Z,55.92
2023-10-22T06:31:41.981Z,55.60
2023-10-22T06:32:15.567Z,55.80
2023-10-22T06:32:48.212Z,55.58
2023-10-22T06:33:20.944Z,55.97
2023-10-22T06:33:54.802Z,55.53
2023-10-22T06:34:27.505Z,55.65
2023-10-22T06:35:00.145Z,56.42
2023-10-22T06:35:32.775Z,55.78
2023-10-22T06:36:16.445Z,55.78
2023-10-22T06:36:49.057Z,55.90
2023-10-22T06:37:21.656Z,55.45
2023-10-22T06:37:54.592Z,55.65
2023-10-22T06:38:28.133Z,55.60
2023-10-22T06:39:00.844Z,56.47
2023-10-22T06:39:33.444Z,55.90
2023-10-22T06:40:08.329Z,56.00
2023-10-22T06:40:42.172Z,56.10
2023-10-22T06:41:16.130Z,55.97
2023-10-22T06:41:48.697Z,55.35
2023-10-22T06:42:27.341Z,55.58
2023-10-22T06:43:00.754Z,55.70
2023-10-22T06:43:33.387Z,56.08
2023-10-22T06:44:06.569Z,55.83
2023-10-22T06:44:43.678Z,55.55
2023-10-22T06:45:16.926Z,55.60
2023-10-22T06:45:49.571Z,55.70
2023-10-22T06:46:23.214Z,55.78
2023-10-22T06:46:55.976Z,55.85
2023-10-22T06:47:29.318Z,55.67
2023-10-22T06:48:02.060Z,56.58
2023-10-22T06:48:34.810Z,56.72
2023-10-22T06:49:08.842Z,55.35
2023-10-22T06:49:41.428Z,55.92
2023-10-22T06:50:16.210Z,55.88
2023-10-22T06:50:48.909Z,55.75
2023-10-22T06:51:23.444Z,55.40
2023-10-22T06:51:56.037Z,55.58
2023-10-22T06:52:29.754Z,55.60
2023-10-22T06:53:02.394Z,55.90
2023-10-22T06:53:35.976Z,55.92
2023-10-22T06:54:08.537Z,56.38
2023-10-22T06:54:41.105Z,55.50
2023-10-22T06:55:14.753Z,55.58
2023-10-22T06:55:47.328Z,55.47
2023-10-22T06:56:19.907Z,56.10
2023-10-22T06:56:52.609Z,55.78
2023-10-22T06:57:26.326Z,56.25
2023-10-22T06:57:58.930Z,56.10
2023-10-22T06:58:32.009Z,55.75
2023-10-22T06:59:04.705Z,55.83
2023-10-22T06:59:38.200Z,55.80
2023-10-22T07:00:14.276Z,55.88
2023-10-22T07:00:46.949Z,55.67
2023-10-22T07:01:20.578Z,55.75
2023-10-22T07:01:53.319Z,56.15
2023-10-22T07:02:26.570Z,56.30
2023-10-22T07:02:59.351Z,55.65
2023-10-22T07:03:33.189Z,56.40
2023-10-22T07:04:06.340Z,55.40
2023-10-22T07:04:39.164Z,55.88
2023-10-22T07:05:12.831Z,55.72
2023-10-22T07:05:45.880Z,55.45
2023-10-22T07:06:18.570Z,55.45
2023-10-22T07:06:52.242Z,55.70
2023-10-22T07:07:25.291Z,55.78
2023-10-22T07:07:57.789Z,55.45
2023-10-22T07:08:30.820Z,55.67
2023-10-22T07:09:04.663Z,55.72
2023-10-22T07:09:37.536Z,56.22
2023-10-22T07:10:10.731Z,56.38
2023-10-22T07:10:43.728Z,55.95
2023-10-22T07:11:17.406Z,55.97
2023-10-22T07:11:50.312Z,55.65
2023-10-22T07:12:23.159Z,56.08
2023-10-22T07:12:55.902Z,56.05